Time;durP1;ratioP1;P1;durP2;ratioP2;P2;SDS_P1;SDS_P2;PMS_P1;PMS_P2;Temp;Humidity;BMP_temperature;BMP_pressure;BME280_temperature;BME280_humidity;BME280_pressure;Samples;Min_cycle;Max_cycle;Signal;HPM_P1;HPM_P2
2022/03/30 00:02:19;;;;;;;;;;;;;;;4.63;68.30;94848.09;5116540;28;901;-49
2022/03/30 00:04:45;;;;;;;;;;;;;;;4.88;66.35;94847.66;5116493;28;1914;-50
2022/03/30 00:07:11;;;;;;;;;;;;;;;4.82;65.38;94850.84;5115768;28;983;-49
2022/03/30 00:09:37;;;;;;;;;;;;;;;4.62;66.87;94849.09;5116692;28;1090;-50
2022/03/30 00:12:03;;;;;;;;;;;;;;;4.76;66.91;94854.06;5115946;28;1032;-50
2022/03/30 00:14:29;;;;;;;;;;;;;;;4.78;66.38;94860.03;5116452;28;1047;-50
2022/03/30 00:16:55;;;;;;;;;;;;;;;4.77;66.20;94847.75;5116286;28;1007;-50
2022/03/30 00:19:21;;;;;;;;;;;;;;;4.72;67.87;94842.03;5116191;28;1028;-50
2022/03/30 00:21:47;;;;;;;;;;;;;;;4.85;66.98;94855.03;5115985;28;1027;-50
2022/03/30 00:24:13;;;;;;;;;;;;;;;5.03;66.25;94853.44;5116119;28;1995;-51
2022/03/30 00:26:39;;;;;;;;;;;;;;;4.76;63.76;94842.59;5115859;28;1028;-51
2022/03/30 00:29:06;;;;;;;;;;;;;;;4.35;66.89;94841.72;5115852;28;1786;-51
2022/03/30 00:31:32;;;;;;;;;;;;;;;4.54;66.95;94840.97;5115833;28;1048;-50
2022/03/30 00:33:58;;;;;;;;;;;;;;;4.54;67.16;94833.03;5115845;27;1028;-50
2022/03/30 00:36:24;;;;;;;;;;;;;;;4.52;67.35;94834.97;5115779;28;1047;-50
2022/03/30 00:38:50;;;;;;;;;;;;;;;4.57;66.86;94835.41;5116057;28;1003;-50
2022/03/30 00:41:16;;;;;;;;;;;;;;;4.63;66.75;94830.44;5116003;28;1079;-50
2022/03/30 00:43:42;;;;;;;;;;;;;;;4.33;67.48;94825.13;5115660;28;1937;-50
2022/03/30 00:46:12;;;;;;;;;;;;;;;4.47;66.75;94827.41;5115514;28;1067;-51
2022/03/30 00:48:39;;;;;;;;;;;;;;;4.43;67.36;94826.84;5115940;28;1016;-50
2022/03/30 00:51:05;;;;;;;;;;;;;;;4.20;67.02;94822.69;5119536;27;1153;-51
2022/03/30 00:53:31;;;;;;;;;;;;;;;4.14;68.44;94825.84;5136175;27;961;-50
2022/03/30 00:55:57;;;;;;;;;;;;;;;4.19;67.47;94821.84;5135788;27;1024;-50
2022/03/30 00:58:25;;;;;;;;;;;;;;;4.02;69.07;94820.63;5135915;27;1023;-50
2022/03/30 01:00:51;;;;;;;;;;;;;;;4.15;68.83;94825.69;5135916;27;995;-50
2022/03/30 01:03:18;;;;;;;;;;;;;;;4.25;68.18;94817.81;5135757;27;1902;-50
2022/03/30 01:05:44;;;;;;;;;;;;;;;4.33;67.75;94825.97;5135856;27;960;-50
2022/03/30 01:08:12;;;;;;;;;;;;;;;4.35;67.24;94813.44;5136144;27;995;-50
2022/03/30 01:10:38;;;;;;;;;;;;;;;4.41;66.44;94810.25;5135867;27;1016;-50
2022/03/30 01:13:05;;;;;;;;;;;;;;;4.15;68.04;94809.81;5135657;27;1039;-50
2022/03/30 01:15:31;;;;;;;;;;;;;;;4.09;67.58;94815.66;5135905;27;973;-50
2022/03/30 01:17:57;;;;;;;;;;;;;;;4.17;66.99;94807.06;5135603;27;1028;-51
2022/03/30 01:20:23;;;;;;;;;;;;;;;3.80;67.87;94811.00;5135446;27;1011;-51
2022/03/30 01:22:50;;;;;;;;;;;;;;;3.84;69.26;94799.19;5135341;27;1909;-51
2022/03/30 01:25:16;;;;;;;;;;;;;;;4.09;67.94;94797.13;5135568;27;957;-50
2022/03/30 01:27:42;;;;;;;;;;;;;;;4.34;68.16;94798.50;5135484;27;976;-50
2022/03/30 01:33:02;;;;;;;;;;;;;;;3.85;67.22;94802.66;5135407;27;968;-51
2022/03/30 01:35:28;;;;;;;;;;;;;;;3.83;68.41;94797.53;5135482;27;1006;-50
2022/03/30 01:37:55;;;;;;;;;;;;;;;3.88;67.34;94802.44;5135040;27;1156;-51
2022/03/30 01:40:21;;;;;;;;;;;;;;;3.70;68.71;94813.56;5135123;27;960;-50
2022/03/30 01:42:47;;;;;;;;;;;;;;;3.87;68.53;94806.03;5134902;27;1032;-50
2022/03/30 01:45:15;;;;;;;;;;;;;;;3.91;68.64;94810.13;5135267;27;1905;-50
2022/03/30 01:47:52;;;;;;;;;;;;;;;3.94;67.85;94809.00;5134866;27;1044;-51
2022/03/30 01:50:18;;;;;;;;;;;;;;;4.02;69.13;94812.69;5135221;27;959;-51
2022/03/30 01:52:45;;;;;;;;;;;;;;;4.04;69.27;94817.81;5116105;27;1152;-51
2022/03/30 01:55:11;;;;;;;;;;;;;;;4.04;69.44;94823.97;5114452;28;1004;-51
2022/03/30 01:57:37;;;;;;;;;;;;;;;4.21;68.60;94816.41;5114191;28;1052;-51
2022/03/30 02:00:04;;;;;;;;;;;;;;;4.15;68.92;94824.88;5114535;28;968;-51
2022/03/30 02:02:30;;;;;;;;;;;;;;;3.90;68.66;94819.00;5114082;28;1060;-50
2022/03/30 02:04:56;;;;;;;;;;;;;;;3.88;68.53;94815.66;5114275;28;1901;-50
2022/03/30 02:07:22;;;;;;;;;;;;;;;3.61;69.00;94813.50;5113934;28;965;-50
2022/03/30 02:09:48;;;;;;;;;;;;;;;3.77;69.42;94821.00;5114320;28;1044;-51
2022/03/30 02:12:15;;;;;;;;;;;;;;;3.81;69.93;94812.66;5114001;28;957;-51
2022/03/30 02:14:41;;;;;;;;;;;;;;;3.79;68.24;94817.25;5114022;28;1090;-51
2022/03/30 02:17:07;;;;;;;;;;;;;;;3.69;68.61;94808.41;5113967;28;989;-51
2022/03/30 02:19:33;;;;;;;;;;;;;;;3.49;70.36;94805.63;5114260;28;995;-50
2022/03/30 02:21:59;;;;;;;;;;;;;;;3.52;70.20;94808.00;5113653;28;1068;-51
2022/03/30 02:24:25;;;;;;;;;;;;;;;3.55;70.11;94814.84;5114108;28;1992;-51
2022/03/30 02:26:51;;;;;;;;;;;;;;;3.37;68.57;94819.00;5114032;28;1127;-50
2022/03/30 02:29:17;;;;;;;;;;;;;;;3.37;69.63;94824.28;5113786;28;1083;-50
2022/03/30 02:31:44;;;;;;;;;;;;;;;3.47;69.66;94820.78;5113219;28;1115;-51
2022/03/30 02:34:11;;;;;;;;;;;;;;;3.53;67.21;94824.72;5113661;28;1093;-51
2022/03/30 02:36:37;;;;;;;;;;;;;;;3.25;68.89;94826.13;5113600;28;1119;-51
2022/03/30 02:39:04;;;;;;;;;;;;;;;3.17;69.39;94820.59;5113887;28;1112;-51
2022/03/30 02:41:30;;;;;;;;;;;;;;;3.30;69.11;94816.84;5113983;28;1016;-51
2022/03/30 02:43:56;;;;;;;;;;;;;;;3.48;69.84;94824.25;5113508;28;1914;-51
2022/03/30 02:46:22;;;;;;;;;;;;;;;3.48;69.67;94819.78;5113724;28;1086;-51
2022/03/30 02:48:48;;;;;;;;;;;;;;;3.42;68.45;94827.41;5113304;28;1016;-50
2022/03/30 02:51:14;;;;;;;;;;;;;;;3.10;68.74;94815.81;5119430;28;1207;-51
2022/03/30 02:53:40;;;;;;;;;;;;;;;3.23;69.35;94812.19;5134075;28;1024;-50
2022/03/30 02:56:06;;;;;;;;;;;;;;;3.19;68.69;94814.25;5134368;28;987;-51
2022/03/30 02:58:32;;;;;;;;;;;;;;;3.00;70.93;94806.13;5133949;28;1012;-51
2022/03/30 03:00:58;;;;;;;;;;;;;;;3.05;71.84;94803.94;5134060;28;928;-50
2022/03/30 03:03:24;;;;;;;;;;;;;;;3.21;70.52;94803.56;5133880;27;1983;-51
2022/03/30 03:05:50;;;;;;;;;;;;;;;3.46;69.41;94807.69;5133879;27;1016;-50
2022/03/30 03:08:16;;;;;;;;;;;;;;;3.45;69.03;94816.56;5134085;28;1039;-51
2022/03/30 03:10:44;;;;;;;;;;;;;;;3.33;69.11;94818.41;5134328;27;1016;-50
2022/03/30 03:13:11;;;;;;;;;;;;;;;3.05;69.00;94811.88;5134169;27;945;-51
2022/03/30 03:15:37;;;;;;;;;;;;;;;3.02;70.27;94809.50;5134012;27;1098;-50
2022/03/30 03:18:04;;;;;;;;;;;;;;;2.80;70.82;94808.56;5133673;27;1060;-51
2022/03/30 03:20:30;;;;;;;;;;;;;;;2.86;70.23;94813.34;5134138;27;1004;-51
2022/03/30 03:22:57;;;;;;;;;;;;;;;2.93;69.78;94818.97;5133602;27;1909;-50
2022/03/30 03:25:24;;;;;;;;;;;;;;;3.02;69.93;94820.06;5132950;28;1013;-51
2022/03/30 03:27:52;;;;;;;;;;;;;;;3.18;69.09;94817.84;5133904;27;1043;-50
2022/03/30 03:30:18;;;;;;;;;;;;;;;2.93;69.59;94808.41;5133689;27;1122;-51
2022/03/30 03:32:44;;;;;;;;;;;;;;;2.72;71.34;94808.34;5133463;27;1957;-50
2022/03/30 03:35:11;;;;;;;;;;;;;;;2.56;72.36;94802.59;5133954;28;1010;-50
2022/03/30 03:37:38;;;;;;;;;;;;;;;2.78;72.58;94805.19;5133651;28;1948;-50
2022/03/30 03:40:05;;;;;;;;;;;;;;;2.93;71.93;94800.50;5133797;28;968;-50
2022/03/30 03:42:32;;;;;;;;;;;;;;;3.00;71.11;94803.47;5134220;27;1004;-50
2022/03/30 03:44:58;;;;;;;;;;;;;;;2.65;70.63;94793.94;5137085;27;1982;-51
2022/03/30 03:47:25;;;;;;;;;;;;;;;2.60;70.79;94790.81;5137376;27;1955;-50
2022/03/30 03:49:50;;;;;;;;;;;;;;;2.71;70.70;94788.16;5136969;27;1056;-50
2022/03/30 03:52:17;;;;;;;;;;;;;;;3.06;69.62;94792.44;5122924;27;1160;-51
2022/03/30 03:54:43;;;;;;;;;;;;;;;3.05;70.71;94790.75;5116853;28;981;-51
2022/03/30 03:57:09;;;;;;;;;;;;;;;2.64;70.02;94784.34;5116737;28;1087;-50
2022/03/30 03:59:35;;;;;;;;;;;;;;;2.39;70.87;94775.75;5116753;28;992;-51
2022/03/30 04:02:04;;;;;;;;;;;;;;;2.22;71.85;94781.47;5116713;28;1188;-49
2022/03/30 04:04:30;;;;;;;;;;;;;;;2.38;71.08;94778.50;5116321;28;1910;-50
2022/03/30 04:06:56;;;;;;;;;;;;;;;2.60;70.66;94783.75;5116565;28;965;-51
2022/03/30 04:09:22;;;;;;;;;;;;;;;2.65;70.38;94775.47;5116274;28;1067;-50
2022/03/30 04:11:48;;;;;;;;;;;;;;;2.49;70.30;94760.03;5116320;28;1027;-51
2022/03/30 04:14:17;;;;;;;;;;;;;;;2.19;71.29;94765.91;5116430;28;964;-50
2022/03/30 04:16:43;;;;;;;;;;;;;;;2.32;71.88;94769.25;5116295;28;1056;-50
2022/03/30 04:19:10;;;;;;;;;;;;;;;2.44;71.16;94781.47;5115919;28;1083;-50
2022/03/30 04:21:36;;;;;;;;;;;;;;;2.68;70.44;94786.63;5116405;28;963;-50
2022/03/30 04:24:02;;;;;;;;;;;;;;;2.52;69.53;94779.09;5116049;28;1914;-50
2022/03/30 04:26:28;;;;;;;;;;;;;;;2.48;70.47;94790.00;5116350;28;1035;-50
2022/03/30 04:28:54;;;;;;;;;;;;;;;2.58;71.45;94792.75;5115756;28;1233;-51
2022/03/30 04:31:20;;;;;;;;;;;;;;;2.64;71.82;94794.91;5115950;28;1040;-52
2022/03/30 04:33:46;;;;;;;;;;;;;;;2.81;70.27;94797.06;5115811;28;1011;-51
2022/03/30 04:36:13;;;;;;;;;;;;;;;2.90;70.56;94798.09;5116202;27;945;-50
2022/03/30 04:38:39;;;;;;;;;;;;;;;2.87;69.42;94808.91;5115726;28;1036;-51
2022/03/30 04:41:05;;;;;;;;;;;;;;;2.58;70.67;94809.44;5115662;28;1032;-51
2022/03/30 04:43:31;;;;;;;;;;;;;;;2.80;70.86;94816.47;5115449;28;1933;-51
2022/03/30 04:45:57;;;;;;;;;;;;;;;3.03;70.32;94819.09;5115749;28;968;-51
2022/03/30 04:48:23;;;;;;;;;;;;;;;3.30;68.98;94806.28;5115526;28;1031;-51
2022/03/30 04:50:49;;;;;;;;;;;;;;;3.41;70.14;94800.09;5117422;27;1160;-51
2022/03/30 04:53:15;;;;;;;;;;;;;;;3.39;71.25;94803.84;5136047;27;1083;-51
2022/03/30 04:55:42;;;;;;;;;;;;;;;3.76;70.72;94798.19;5136021;27;999;-52
2022/03/30 04:58:08;;;;;;;;;;;;;;;4.09;70.38;94802.41;5135948;27;1107;-51
2022/03/30 05:00:34;;;;;;;;;;;;;;;4.37;69.05;94800.91;5135787;27;972;-51
2022/03/30 05:03:00;;;;;;;;;;;;;;;4.41;67.82;94807.59;5135656;27;2452;-51
2022/03/30 05:05:27;;;;;;;;;;;;;;;4.51;67.32;94807.66;5136082;27;964;-51
2022/03/30 05:07:55;;;;;;;;;;;;;;;4.56;67.39;94804.63;5136012;27;974;-51
2022/03/30 05:10:21;;;;;;;;;;;;;;;4.87;68.34;94808.06;5135533;27;1864;-51
2022/03/30 05:12:47;;;;;;;;;;;;;;;5.02;67.67;94809.34;5135538;27;1015;-50
2022/03/30 05:15:13;;;;;;;;;;;;;;;5.31;66.97;94816.53;5135778;27;1025;-51
2022/03/30 05:17:40;;;;;;;;;;;;;;;5.60;66.69;94821.06;5134308;27;1037;-51
2022/03/30 05:20:06;;;;;;;;;;;;;;;5.90;66.31;94819.22;5135608;27;1071;-52
2022/03/30 05:22:33;;;;;;;;;;;;;;;6.18;65.29;94820.19;5135858;27;972;-51
2022/03/30 05:25:00;;;;;;;;;;;;;;;6.52;64.55;94817.03;5135256;27;1913;-52
2022/03/30 05:27:26;;;;;;;;;;;;;;;6.74;63.49;94818.53;5135771;27;945;-51
2022/03/30 05:29:52;;;;;;;;;;;;;;;6.80;63.89;94820.59;5134965;27;1166;-52
2022/03/30 05:32:18;;;;;;;;;;;;;;;7.03;63.43;94819.22;5134050;27;933;-52
2022/03/30 05:34:44;;;;;;;;;;;;;;;7.30;62.45;94817.53;5135284;27;1027;-52
2022/03/30 05:37:11;;;;;;;;;;;;;;;7.39;61.92;94821.13;5135416;27;1015;-51
2022/03/30 05:39:41;;;;;;;;;;;;;;;7.31;62.26;94818.38;5135433;27;1030;-51
2022/03/30 05:42:08;;;;;;;;;;;;;;;7.49;62.37;94821.88;5134889;27;1082;-52
2022/03/30 05:44:34;;;;;;;;;;;;;;;7.58;62.67;94828.13;5133842;27;1990;-51
2022/03/30 05:47:00;;;;;;;;;;;;;;;7.63;62.52;94826.69;5135046;27;960;-51
2022/03/30 05:49:26;;;;;;;;;;;;;;;7.78;62.06;94829.69;5135285;27;941;-52
2022/03/30 05:51:52;;;;;;;;;;;;;;;7.87;61.38;94835.91;5122726;27;1325;-51
2022/03/30 05:54:18;;;;;;;;;;;;;;;7.66;61.84;94828.22;5114653;28;1019;-51
2022/03/30 05:57:02;;;;;;;;;;;;;;;7.50;62.36;94828.88;5114058;28;1044;-52
2022/03/30 05:59:33;;;;;;;;;;;;;;;7.61;61.31;94830.50;5114232;28;1037;-51
2022/03/30 06:01:59;;;;;;;;;;;;;;;7.52;61.77;94826.91;5114177;28;1036;-51
2022/03/30 06:04:25;;;;;;;;;;;;;;;7.15;62.72;94837.63;5114110;28;1992;-51
2022/03/30 06:06:51;;;;;;;;;;;;;;;6.81;63.34;94835.53;5113535;28;992;-52
2022/03/30 06:09:18;;;;;;;;;;;;;;;6.83;63.84;94839.75;5114239;28;968;-52
2022/03/30 06:11:44;;;;;;;;;;;;;;;6.87;63.80;94812.84;5114167;28;980;-50
2022/03/30 06:14:11;;;;;;;;;;;;;;;7.66;62.10;94846.00;5113922;28;969;-51
2022/03/30 06:16:37;;;;;;;;;;;;;;;8.57;60.63;94837.81;5113682;28;1092;-50
2022/03/30 06:19:03;;;;;;;;;;;;;;;8.87;58.75;94827.69;5114120;28;993;-51
2022/03/30 06:21:29;;;;;;;;;;;;;;;8.57;59.22;94827.16;5113982;28;1108;-51
2022/03/30 06:23:56;;;;;;;;;;;;;;;8.54;59.53;94835.50;5114042;28;1905;-50
2022/03/30 06:26:22;;;;;;;;;;;;;;;9.33;57.58;94845.06;5113645;28;1052;-51
2022/03/30 06:32:29;;;;;;;;;;;;;;;11.65;50.72;94850.16;4800539;28;2416;-52
2022/03/30 06:34:55;;;;;;;;;;;;;;;12.72;48.36;94852.94;5113676;28;1063;-52
2022/03/30 06:37:21;;;;;;;;;;;;;;;14.10;44.66;94848.84;5113521;28;1164;-52
2022/03/30 06:39:48;;;;;;;;;;;;;;;15.15;42.34;94841.09;5113830;28;972;-52
2022/03/30 06:42:16;;;;;;;;;;;;;;;15.35;41.63;94844.75;5113496;28;1063;-52
2022/03/30 06:44:43;;;;;;;;;;;;;;;15.73;41.88;94832.75;5113569;28;1909;-52
2022/03/30 06:47:09;;;;;;;;;;;;;;;16.93;38.34;94828.47;5113423;28;965;-52
2022/03/30 06:49:37;;;;;;;;;;;;;;;18.12;36.29;94833.81;5113571;28;1008;-53
2022/03/30 06:52:04;;;;;;;;;;;;;;;20.12;33.02;94837.53;5124828;28;1169;-52
2022/03/30 06:54:30;;;;;;;;;;;;;;;21.39;30.70;94835.66;5134119;27;1036;-53
2022/03/30 06:56:56;;;;;;;;;;;;;;;22.65;29.34;94842.41;5134138;28;1031;-53
2022/03/30 06:59:22;;;;;;;;;;;;;;;23.47;27.99;94839.22;5134460;27;991;-52
2022/03/30 07:01:48;;;;;;;;;;;;;;;24.87;25.96;94839.91;5133789;28;975;-53
2022/03/30 07:04:14;;;;;;;;;;;;;;;24.73;26.09;94845.78;5133989;27;1988;-53
2022/03/30 07:10:14;;;;;;;;;;;;;;;25.67;25.39;94840.91;5134132;28;952;-53
2022/03/30 07:12:11;;;;;;;;;;;;;;;25.13;25.73;94844.53;5133724;27;1082;-53
2022/03/30 07:14:37;;;;;;;;;;;;;;;26.33;24.28;94847.03;5133924;27;1023;-53
2022/03/30 07:17:03;;;;;;;;;;;;;;;26.58;23.67;94847.13;5135440;27;1038;-54
2022/03/30 07:19:29;;;;;;;;;;;;;;;27.13;23.18;94847.56;5138288;27;1003;-53
2022/03/30 07:21:55;;;;;;;;;;;;;;;26.83;23.54;94848.31;5137947;27;1036;-54
2022/03/30 07:24:21;;;;;;;;;;;;;;;27.32;23.79;94844.28;5138112;27;1996;-54
2022/03/30 07:26:47;;;;;;;;;;;;;;;28.17;22.01;94832.66;5138103;27;1043;-54
2022/03/30 07:29:13;;;;;;;;;;;;;;;29.00;21.42;94834.75;5137765;27;1035;-53
2022/03/30 07:31:39;;;;;;;;;;;;;;;29.41;21.01;94832.88;5137325;27;1071;-54
2022/03/30 07:34:05;;;;;;;;;;;;;;;29.79;20.86;94833.94;5137671;27;1008;-53
2022/03/30 07:36:31;;;;;;;;;;;;;;;29.75;20.53;94839.19;5137704;27;960;-53
2022/03/30 07:38:57;;;;;;;;;;;;;;;29.01;20.96;94838.34;5137593;27;1058;-53
2022/03/30 07:41:23;;;;;;;;;;;;;;;28.43;22.42;94839.72;5137765;27;1178;-53
2022/03/30 07:43:49;;;;;;;;;;;;;;;28.84;20.77;94835.97;5137330;27;1918;-52
2022/03/30 07:46:16;;;;;;;;;;;;;;;28.31;21.92;94841.16;5137257;27;983;-53
2022/03/30 07:48:42;;;;;;;;;;;;;;;26.40;23.48;94836.66;5137462;27;965;-53
2022/03/30 07:51:08;;;;;;;;;;;;;;;27.63;22.54;94832.19;5132531;27;1223;-52
2022/03/30 07:53:34;;;;;;;;;;;;;;;27.29;23.06;94822.91;5116556;28;1095;-52
2022/03/30 07:56:00;;;;;;;;;;;;;;;22.91;27.37;94825.44;5116884;28;983;-52
2022/03/30 07:58:26;;;;;;;;;;;;;;;19.52;32.66;94827.34;5116442;28;1028;-52
2022/03/30 08:00:52;;;;;;;;;;;;;;;20.44;32.72;94832.72;5116340;28;1071;-52
2022/03/30 08:03:18;;;;;;;;;;;;;;;20.73;31.42;94826.69;5115398;28;2024;-52
2022/03/30 08:05:44;;;;;;;;;;;;;;;19.70;32.84;94824.63;5116830;28;995;-52
2022/03/30 08:08:10;;;;;;;;;;;;;;;19.14;33.57;94822.06;5116705;28;957;-52
2022/03/30 08:10:37;;;;;;;;;;;;;;;18.87;34.25;94827.72;5116713;28;996;-52
2022/03/30 08:13:04;;;;;;;;;;;;;;;18.87;34.73;94822.31;5115924;28;965;-51
2022/03/30 08:15:31;;;;;;;;;;;;;;;18.13;35.91;94820.03;5116203;28;1028;-52
2022/03/30 08:17:57;;;;;;;;;;;;;;;17.35;37.67;94798.47;5116301;28;1035;-51
2022/03/30 08:23:09;;;;;;;;;;;;;;;16.32;39.28;94794.34;5116177;28;1909;-52
2022/03/30 08:25:35;;;;;;;;;;;;;;;16.88;38.78;94778.81;5116023;28;1080;-52
2022/03/30 08:28:02;;;;;;;;;;;;;;;17.62;38.15;94779.47;5115355;28;969;-52
2022/03/30 08:30:28;;;;;;;;;;;;;;;19.25;34.96;94780.69;5116115;28;1045;-52
2022/03/30 08:32:54;;;;;;;;;;;;;;;19.90;33.45;94785.63;5115886;28;949;-52
2022/03/30 08:35:21;;;;;;;;;;;;;;;20.59;33.12;94782.59;5116093;28;933;-52
2022/03/30 08:37:47;;;;;;;;;;;;;;;20.77;32.83;94776.25;5115575;28;1052;-52
2022/03/30 08:40:13;;;;;;;;;;;;;;;20.21;33.48;94775.63;5115940;28;1037;-52
2022/03/30 08:42:40;;;;;;;;;;;;;;;20.19;33.75;94767.72;5115399;28;1055;-52
2022/03/30 08:45:07;;;;;;;;;;;;;;;20.12;34.52;94766.16;5115694;28;1917;-52
2022/03/30 08:47:34;;;;;;;;;;;;;;;20.15;33.65;94760.28;5115785;28;1103;-52
2022/03/30 08:50:00;;;;;;;;;;;;;;;19.81;34.21;94759.88;5115758;28;965;-52
2022/03/30 08:52:26;;;;;;;;;;;;;;;19.61;36.25;94763.59;5131562;27;1208;-52
2022/03/30 08:54:52;;;;;;;;;;;;;;;19.55;34.91;94750.97;5135899;27;957;-51
2022/03/30 08:57:19;;;;;;;;;;;;;;;19.69;34.92;94749.75;5136334;27;1052;-51
2022/03/30 08:59:57;;;;;;;;;;;;;;;19.60;34.55;94753.00;5135905;27;961;-52
2022/03/30 09:02:33;;;;;;;;;;;;;;;18.96;36.07;94742.44;5136228;27;991;-52
2022/03/30 09:05:19;;;;;;;;;;;;;;;18.35;35.88;94738.53;5135708;27;1992;-52
2022/03/30 09:07:48;;;;;;;;;;;;;;;18.08;36.88;94738.72;5135709;27;949;-52
2022/03/30 09:10:15;;;;;;;;;;;;;;;17.95;37.85;94730.69;5135967;27;1052;-52
2022/03/30 09:12:42;;;;;;;;;;;;;;;18.00;38.39;94727.31;5135849;27;949;-53
2022/03/30 09:15:08;;;;;;;;;;;;;;;17.87;38.98;94728.22;5135404;27;1983;-52
2022/03/30 09:17:41;;;;;;;;;;;;;;;17.98;38.08;94722.13;5135741;27;1062;-52
2022/03/30 09:20:12;;;;;;;;;;;;;;;17.86;38.70;94704.94;5135350;27;973;-52
2022/03/30 09:22:41;;;;;;;;;;;;;;;17.87;39.10;94696.63;5135846;27;1071;-52
2022/03/30 09:25:08;;;;;;;;;;;;;;;17.89;38.49;94680.16;5135496;27;1988;-52
2022/03/30 09:27:39;;;;;;;;;;;;;;;17.96;38.38;94689.06;5135503;27;1861;-52
2022/03/30 09:30:06;;;;;;;;;;;;;;;18.16;38.17;94680.81;5135447;27;1065;-52
2022/03/30 09:32:32;;;;;;;;;;;;;;;18.14;38.04;94675.63;5135213;27;1130;-52
2022/03/30 09:34:58;;;;;;;;;;;;;;;18.19;38.21;94674.13;5135313;27;968;-52
2022/03/30 09:37:24;;;;;;;;;;;;;;;18.32;37.63;94663.19;5135603;27;1031;-52
2022/03/30 09:39:50;;;;;;;;;;;;;;;18.28;37.66;94668.22;5134503;27;987;-53
2022/03/30 09:42:18;;;;;;;;;;;;;;;17.97;38.47;94665.56;5134766;27;1195;-52
2022/03/30 09:44:54;;;;;;;;;;;;;;;17.90;39.11;94662.91;5134909;27;1999;-52
2022/03/30 09:47:21;;;;;;;;;;;;;;;17.93;38.81;94662.47;5135364;27;1056;-52
2022/03/30 09:49:47;;;;;;;;;;;;;;;17.60;39.30;94658.03;5135102;27;996;-52
2022/03/30 09:52:18;;;;;;;;;;;;;;;17.53;39.67;94652.69;5120911;27;1872;-52
2022/03/30 09:54:49;;;;;;;;;;;;;;;17.78;39.71;94653.81;5114182;28;1029;-52
2022/03/30 09:57:15;;;;;;;;;;;;;;;17.93;39.79;94647.06;5113296;28;1029;-51
2022/03/30 09:59:57;;;;;;;;;;;;;;;17.93;38.87;94648.94;5114363;28;1032;-52
2022/03/30 10:02:23;;;;;;;;;;;;;;;18.28;37.39;94634.94;5114587;28;980;-52
2022/03/30 10:04:50;;;;;;;;;;;;;;;18.54;37.30;94631.97;5114096;28;1906;-52
2022/03/30 10:07:16;;;;;;;;;;;;;;;18.73;36.95;94627.41;5114082;28;1127;-52
2022/03/30 10:09:43;;;;;;;;;;;;;;;18.99;34.16;94628.22;5113930;28;1025;-53
2022/03/30 10:12:09;;;;;;;;;;;;;;;19.34;30.87;94624.03;5113769;28;1320;-53
2022/03/30 10:14:36;;;;;;;;;;;;;;;19.55;29.69;94620.81;5113690;28;1025;-52
2022/03/30 10:17:02;;;;;;;;;;;;;;;19.70;28.71;94613.09;5113897;28;1051;-52
2022/03/30 10:19:28;;;;;;;;;;;;;;;19.68;28.94;94614.38;5113828;28;1076;-53
2022/03/30 10:22:01;;;;;;;;;;;;;;;19.57;27.64;94610.56;5113788;28;1040;-52
2022/03/30 10:24:27;;;;;;;;;;;;;;;19.57;28.29;94607.03;5113820;28;1910;-52
2022/03/30 10:26:59;;;;;;;;;;;;;;;19.55;28.11;94604.56;5114030;28;1033;-52
2022/03/30 10:29:27;;;;;;;;;;;;;;;19.49;28.36;94605.47;5113581;28;1976;-52
2022/03/30 10:32:19;;;;;;;;;;;;;;;19.51;28.60;94608.78;5113706;28;1103;-52
2022/03/30 10:34:49;;;;;;;;;;;;;;;19.62;28.57;94589.03;5112344;28;1848;-53
2022/03/30 10:37:22;;;;;;;;;;;;;;;19.63;27.76;94597.97;5113780;28;1003;-52
2022/03/30 10:39:55;;;;;;;;;;;;;;;19.69;27.42;94600.59;5113522;28;1972;-52
2022/03/30 10:42:21;;;;;;;;;;;;;;;19.73;27.01;94601.00;5113505;28;1099;-52
2022/03/30 10:44:49;;;;;;;;;;;;;;;19.77;25.96;94596.75;5113641;28;1913;-52
2022/03/30 10:47:16;;;;;;;;;;;;;;;19.76;26.70;94594.28;5114019;28;1004;-52
2022/03/30 10:50:09;;;;;;;;;;;;;;;19.87;26.33;94588.88;5113421;28;1063;-52
2022/03/30 10:52:38;;;;;;;;;;;;;;;19.85;26.42;94598.31;5132370;27;1819;-52
2022/03/30 10:55:14;;;;;;;;;;;;;;;19.66;25.76;94592.09;5138153;27;1110;-51
2022/03/30 10:57:46;;;;;;;;;;;;;;;19.66;26.15;94598.34;5138380;27;992;-52
2022/03/30 11:00:16;;;;;;;;;;;;;;;19.62;26.66;94580.88;5138380;27;1043;-52
2022/03/30 11:02:42;;;;;;;;;;;;;;;19.60;26.90;94583.00;5138589;27;980;-52
2022/03/30 11:05:09;;;;;;;;;;;;;;;19.55;25.92;94582.03;5138181;27;1910;-51
2022/03/30 11:07:36;;;;;;;;;;;;;;;19.37;26.31;94574.78;5138441;27;956;-52
2022/03/30 11:10:12;;;;;;;;;;;;;;;19.28;26.58;94566.16;5138211;27;976;-51
2022/03/30 11:12:57;;;;;;;;;;;;;;;19.23;26.37;94569.53;5138098;27;949;-51
2022/03/30 11:15:23;;;;;;;;;;;;;;;19.33;26.74;94569.00;5138138;27;1043;-52
2022/03/30 11:17:49;;;;;;;;;;;;;;;19.37;26.98;94559.34;5138198;27;1169;-52
2022/03/30 11:20:16;;;;;;;;;;;;;;;19.30;26.84;94569.47;5137855;27;1017;-52
2022/03/30 11:22:44;;;;;;;;;;;;;;;19.17;26.54;94567.75;5138214;27;960;-52
2022/03/30 11:25:17;;;;;;;;;;;;;;;18.98;26.57;94560.72;5138057;27;1921;-51
2022/03/30 11:27:45;;;;;;;;;;;;;;;18.92;27.07;94555.13;5137724;27;991;-52
2022/03/30 11:30:11;;;;;;;;;;;;;;;18.89;27.25;94552.06;5137712;27;1020;-53
2022/03/30 11:32:58;;;;;;;;;;;;;;;18.79;27.20;94557.97;5137649;27;1154;-52
2022/03/30 11:35:25;;;;;;;;;;;;;;;18.70;26.91;94556.63;5137458;27;1243;-53
2022/03/30 11:38:11;;;;;;;;;;;;;;;18.73;27.09;94558.88;5136352;27;1087;-52
2022/03/30 11:40:39;;;;;;;;;;;;;;;18.85;26.60;94551.69;5137818;27;1036;-52
2022/03/30 11:43:05;;;;;;;;;;;;;;;19.06;27.15;94547.66;5137419;27;1047;-53
2022/03/30 11:45:32;;;;;;;;;;;;;;;19.25;27.00;94545.75;5137580;27;1910;-51
2022/03/30 11:48:00;;;;;;;;;;;;;;;19.34;26.92;94553.56;5137521;27;1047;-51
2022/03/30 11:50:29;;;;;;;;;;;;;;;19.46;27.06;94554.41;5137335;27;1023;-52
2022/03/30 11:53:04;;;;;;;;;;;;;;;19.60;26.75;94546.94;5117126;27;1184;-53
2022/03/30 11:55:31;;;;;;;;;;;;;;;19.77;26.55;94552.53;5116582;28;1099;-51
2022/03/30 11:57:58;;;;;;;;;;;;;;;20.18;27.22;94539.97;5116472;28;1103;-52
2022/03/30 12:00:25;;;;;;;;;;;;;;;20.36;26.59;94541.75;5116678;28;924;-52
2022/03/30 12:02:54;;;;;;;;;;;;;;;20.47;26.72;94540.91;5115840;28;964;-52
2022/03/30 12:05:20;;;;;;;;;;;;;;;20.26;25.82;94528.72;5116456;28;1915;-52
2022/03/30 12:07:50;;;;;;;;;;;;;;;20.04;26.65;94521.19;5116291;28;2097;-52
2022/03/30 12:10:16;;;;;;;;;;;;;;;19.88;26.38;94524.59;5116802;28;1051;-52
2022/03/30 12:12:43;;;;;;;;;;;;;;;19.77;27.23;94528.09;5116045;28;1028;-52
2022/03/30 12:15:11;;;;;;;;;;;;;;;19.67;26.87;94528.66;5116664;28;965;-52
2022/03/30 12:17:37;;;;;;;;;;;;;;;19.57;27.13;94521.09;5116204;28;963;-53
2022/03/30 12:20:08;;;;;;;;;;;;;;;19.59;27.18;94516.25;5116449;28;972;-52
2022/03/30 12:22:34;;;;;;;;;;;;;;;19.48;26.66;94527.91;5115116;28;1051;-51
2022/03/30 12:25:01;;;;;;;;;;;;;;;19.41;27.31;94525.31;5116203;28;2007;-52
2022/03/30 12:27:27;;;;;;;;;;;;;;;19.33;27.77;94513.97;5115985;28;1048;-52
2022/03/30 12:29:54;;;;;;;;;;;;;;;19.38;27.76;94512.22;5116029;28;1250;-53
2022/03/30 12:32:24;;;;;;;;;;;;;;;19.36;27.60;94513.50;5115708;28;1334;-52
2022/03/30 12:35:04;;;;;;;;;;;;;;;19.29;27.60;94514.44;5116264;28;979;-52
2022/03/30 12:37:30;;;;;;;;;;;;;;;19.16;27.69;94517.34;5115963;28;980;-53
2022/03/30 12:40:05;;;;;;;;;;;;;;;19.12;27.21;94518.81;5115970;28;1048;-52
2022/03/30 12:42:33;;;;;;;;;;;;;;;19.11;27.28;94512.59;5115475;28;973;-52
2022/03/30 12:45:10;;;;;;;;;;;;;;;19.17;28.02;94510.84;5115917;28;1910;-52
2022/03/30 12:47:38;;;;;;;;;;;;;;;19.24;27.55;94514.28;5115800;28;1074;-52
2022/03/30 12:50:09;;;;;;;;;;;;;;;19.24;27.35;94499.94;5115759;28;1020;-52
2022/03/30 12:52:44;;;;;;;;;;;;;;;19.39;27.33;94508.44;5132838;27;1101;-52
2022/03/30 12:55:18;;;;;;;;;;;;;;;19.40;27.37;94498.44;5136305;27;960;-53
2022/03/30 12:57:52;;;;;;;;;;;;;;;19.21;27.29;94490.34;5136045;27;1039;-52
2022/03/30 13:00:20;;;;;;;;;;;;;;;19.15;27.80;94488.56;5136352;27;953;-52
2022/03/30 13:02:47;;;;;;;;;;;;;;;19.00;27.32;94488.16;5135956;27;966;-52
2022/03/30 13:05:20;;;;;;;;;;;;;;;18.88;27.26;94486.25;5136002;27;1907;-52
2022/03/30 13:07:50;;;;;;;;;;;;;;;18.89;28.06;94474.34;5135665;27;1227;-53
2022/03/30 13:10:18;;;;;;;;;;;;;;;19.00;27.88;94471.91;5135785;27;1096;-53
2022/03/30 13:12:50;;;;;;;;;;;;;;;18.91;27.88;94472.25;5135446;27;992;-52
2022/03/30 13:15:17;;;;;;;;;;;;;;;18.86;28.37;94471.28;5135502;27;1036;-53
2022/03/30 13:17:57;;;;;;;;;;;;;;;18.87;27.98;94479.16;5135512;27;1028;-53
2022/03/30 13:20:23;;;;;;;;;;;;;;;19.00;28.13;94466.50;5134578;27;1055;-52